sensor_id;sensor_type;location;lat;lon;timestamp;P1;durP1;ratioP1;P2;durP2;ratioP2
4961;SDS011;2496;52.468;13.342;2023-05-20T00:02:09;7.10;;;3.37;;
4961;SDS011;2496;52.468;13.342;2023-05-20T00:04:36;5.43;;;4.23;;
4961;SDS011;2496;52.468;13.342;2023-05-20T00:07:06;6.40;;;4.23;;
4961;SDS011;2496;52.468;13.342;2023-05-20T00:09:33;7.17;;;3.70;;
4961;SDS011;2496;52.468;13.342;2023-05-20T00:12:00;6.00;;;3.97;;
4961;SDS011;2496;52.468;13.342;2023-05-20T00:14:27;6.10;;;3.43;;
4961;SDS011;2496;52.468;13.342;2023-05-20T00:16:54;6.60;;;4.00;;
4961;SDS011;2496;52.468;13.342;2023-05-20T00:19:21;7.57;;;3.50;;
4961;SDS011;2496;52.468;13.342;2023-05-20T00:21:48;6.40;;;3.80;;
4961;SDS011;2496;52.468;13.342;2023-05-20T00:24:16;6.10;;;3.70;;
4961;SDS011;2496;52.468;13.342;2023-05-20T00:26:43;7.77;;;3.87;;
4961;SDS011;2496;52.468;13.342;2023-05-20T00:29:10;6.40;;;3.50;;
4961;SDS011;2496;52.468;13.342;2023-05-20T00:31:37;6.23;;;3.50;;
4961;SDS011;2496;52.468;13.342;2023-05-20T00:34:04;6.47;;;3.70;;
4961;SDS011;2496;52.468;13.342;2023-05-20T00:36:31;6.13;;;3.20;;
4961;SDS011;2496;52.468;13.342;2023-05-20T00:38:58;6.80;;;4.10;;
4961;SDS011;2496;52.468;13.342;2023-05-20T00:41:26;4.10;;;3.30;;
4961;SDS011;2496;52.468;13.342;2023-05-20T00:43:53;8.27;;;3.57;;
4961;SDS011;2496;52.468;13.342;2023-05-20T00:46:20;5.30;;;3.97;;
4961;SDS011;2496;52.468;13.342;2023-05-20T00:48:47;7.03;;;3.50;;
4961;SDS011;2496;52.468;13.342;2023-05-20T00:51:16;5.17;;;3.70;;
4961;SDS011;2496;52.468;13.342;2023-05-20T00:53:43;8.37;;;4.27;;
4961;SDS011;2496;52.468;13.342;2023-05-20T00:56:10;4.60;;;3.27;;
4961;SDS011;2496;52.468;13.342;2023-05-20T00:58:39;6.53;;;4.10;;
4961;SDS011;2496;52.468;13.342;2023-05-20T01:01:06;5.10;;;3.43;;
4961;SDS011;2496;52.468;13.342;2023-05-20T01:03:33;7.80;;;3.90;;
4961;SDS011;2496;52.468;13.342;2023-05-20T01:06:00;5.50;;;3.70;;
4961;SDS011;2496;52.468;13.342;2023-05-20T01:08:27;7.20;;;3.60;;
4961;SDS011;2496;52.468;13.342;2023-05-20T01:10:56;9.77;;;3.80;;
4961;SDS011;2496;52.468;13.342;2023-05-20T01:13:29;5.27;;;3.77;;
4961;SDS011;2496;52.468;13.342;2023-05-20T01:16:01;8.73;;;4.23;;
4961;SDS011;2496;52.468;13.342;2023-05-20T01:18:29;5.40;;;3.40;;
4961;SDS011;2496;52.468;13.342;2023-05-20T01:20:58;8.27;;;3.60;;
4961;SDS011;2496;52.468;13.342;2023-05-20T01:23:36;8.50;;;3.90;;
4961;SDS011;2496;52.468;13.342;2023-05-20T01:26:04;5.27;;;3.90;;
4961;SDS011;2496;52.468;13.342;2023-05-20T01:28:31;10.83;;;4.50;;
4961;SDS011;2496;52.468;13.342;2023-05-20T01:30:59;7.10;;;4.13;;
4961;SDS011;2496;52.468;13.342;2023-05-20T01:33:28;6.13;;;4.30;;
4961;SDS011;2496;52.468;13.342;2023-05-20T01:35:57;10.30;;;5.87;;
4961;SDS011;2496;52.468;13.342;2023-05-20T01:38:24;5.27;;;4.60;;
4961;SDS011;2496;52.468;13.342;2023-05-20T01:40:53;8.20;;;4.23;;
4961;SDS011;2496;52.468;13.342;2023-05-20T01:43:22;8.53;;;4.23;;
4961;SDS011;2496;52.468;13.342;2023-05-20T01:45:51;15.50;;;4.10;;
4961;SDS011;2496;52.468;13.342;2023-05-20T01:48:18;5.90;;;3.53;;
4961;SDS011;2496;52.468;13.342;2023-05-20T01:50:44;12.53;;;4.27;;
4961;SDS011;2496;52.468;13.342;2023-05-20T01:53:11;9.57;;;4.27;;
4961;SDS011;2496;52.468;13.342;2023-05-20T01:55:38;9.07;;;4.20;;
4961;SDS011;2496;52.468;13.342;2023-05-20T01:58:07;11.07;;;4.60;;
4961;SDS011;2496;52.468;13.342;2023-05-20T02:00:34;7.87;;;4.13;;
4961;SDS011;2496;52.468;13.342;2023-05-20T02:03:01;10.20;;;4.57;;
4961;SDS011;2496;52.468;13.342;2023-05-20T02:05:28;11.77;;;4.17;;
4961;SDS011;2496;52.468;13.342;2023-05-20T02:07:55;6.60;;;4.60;;
4961;SDS011;2496;52.468;13.342;2023-05-20T02:10:22;5.63;;;3.97;;
4961;SDS011;2496;52.468;13.342;2023-05-20T02:12:49;8.87;;;4.37;;
4961;SDS011;2496;52.468;13.342;2023-05-20T02:15:17;9.57;;;4.60;;
4961;SDS011;2496;52.468;13.342;2023-05-20T02:17:45;7.43;;;4.40;;
4961;SDS011;2496;52.468;13.342;2023-05-20T02:20:12;6.63;;;4.30;;
4961;SDS011;2496;52.468;13.342;2023-05-20T02:22:39;7.57;;;4.47;;
4961;SDS011;2496;52.468;13.342;2023-05-20T02:25:06;6.90;;;3.90;;
4961;SDS011;2496;52.468;13.342;2023-05-20T02:27:34;8.03;;;5.00;;
4961;SDS011;2496;52.468;13.342;2023-05-20T02:30:01;6.73;;;4.27;;
4961;SDS011;2496;52.468;13.342;2023-05-20T02:32:30;8.23;;;4.30;;
4961;SDS011;2496;52.468;13.342;2023-05-20T02:34:57;5.07;;;4.23;;
4961;SDS011;2496;52.468;13.342;2023-05-20T02:37:24;10.67;;;4.53;;
4961;SDS011;2496;52.468;13.342;2023-05-20T02:39:52;7.60;;;4.00;;
4961;SDS011;2496;52.468;13.342;2023-05-20T02:42:20;6.00;;;4.40;;
4961;SDS011;2496;52.468;13.342;2023-05-20T02:44:47;7.63;;;4.43;;
4961;SDS011;2496;52.468;13.342;2023-05-20T02:47:14;6.07;;;4.57;;
4961;SDS011;2496;52.468;13.342;2023-05-20T02:49:42;6.37;;;4.10;;
4961;SDS011;2496;52.468;13.342;2023-05-20T02:52:09;9.30;;;5.20;;
4961;SDS011;2496;52.468;13.342;2023-05-20T02:54:36;6.43;;;4.40;;
4961;SDS011;2496;52.468;13.342;2023-05-20T02:57:03;15.37;;;4.80;;
4961;SDS011;2496;52.468;13.342;2023-05-20T02:59:30;6.97;;;5.10;;
4961;SDS011;2496;52.468;13.342;2023-05-20T03:01:57;8.97;;;5.03;;
4961;SDS011;2496;52.468;13.342;2023-05-20T03:04:24;11.67;;;5.00;;
4961;SDS011;2496;52.468;13.342;2023-05-20T03:06:53;4.73;;;4.07;;
4961;SDS011;2496;52.468;13.342;2023-05-20T03:09:22;6.30;;;4.73;;
4961;SDS011;2496;52.468;13.342;2023-05-20T03:11:49;9.70;;;4.80;;
4961;SDS011;2496;52.468;13.342;2023-05-20T03:14:16;6.50;;;4.50;;
4961;SDS011;2496;52.468;13.342;2023-05-20T03:16:43;9.40;;;4.20;;
4961;SDS011;2496;52.468;13.342;2023-05-20T03:19:10;9.97;;;4.43;;
4961;SDS011;2496;52.468;13.342;2023-05-20T03:21:37;7.13;;;4.53;;
4961;SDS011;2496;52.468;13.342;2023-05-20T03:24:05;6.70;;;4.80;;
4961;SDS011;2496;52.468;13.342;2023-05-20T03:26:32;9.07;;;5.27;;
4961;SDS011;2496;52.468;13.342;2023-05-20T03:29:01;8.80;;;4.57;;
4961;SDS011;2496;52.468;13.342;2023-05-20T03:31:28;7.30;;;4.83;;
4961;SDS011;2496;52.468;13.342;2023-05-20T03:33:56;7.07;;;3.90;;
4961;SDS011;2496;52.468;13.342;2023-05-20T03:36:23;7.67;;;4.90;;
4961;SDS011;2496;52.468;13.342;2023-05-20T03:38:50;10.30;;;5.47;;
4961;SDS011;2496;52.468;13.342;2023-05-20T03:41:18;6.50;;;4.20;;
4961;SDS011;2496;52.468;13.342;2023-05-20T03:43:46;6.50;;;4.50;;
4961;SDS011;2496;52.468;13.342;2023-05-20T03:46:13;6.80;;;4.67;;
4961;SDS011;2496;52.468;13.342;2023-05-20T03:48:40;9.20;;;5.57;;
4961;SDS011;2496;52.468;13.342;2023-05-20T03:51:07;8.57;;;5.40;;
4961;SDS011;2496;52.468;13.342;2023-05-20T03:53:34;10.00;;;5.20;;
4961;SDS011;2496;52.468;13.342;2023-05-20T03:56:01;11.47;;;5.23;;
4961;SDS011;2496;52.468;13.342;2023-05-20T03:58:30;7.83;;;6.20;;
4961;SDS011;2496;52.468;13.342;2023-05-20T04:00:57;11.63;;;5.10;;
4961;SDS011;2496;52.468;13.342;2023-05-20T04:03:25;7.37;;;5.30;;
4961;SDS011;2496;52.468;13.342;2023-05-20T04:05:52;5.40;;;4.33;;
4961;SDS011;2496;52.468;13.342;2023-05-20T04:08:20;8.67;;;4.97;;
4961;SDS011;2496;52.468;13.342;2023-05-20T04:10:50;9.23;;;4.80;;
4961;SDS011;2496;52.468;13.342;2023-05-20T04:13:20;8.83;;;4.37;;
4961;SDS011;2496;52.468;13.342;2023-05-20T04:15:51;11.80;;;5.33;;
4961;SDS011;2496;52.468;13.342;2023-05-20T04:18:18;9.30;;;5.20;;
4961;SDS011;2496;52.468;13.342;2023-05-20T04:20:45;7.80;;;5.00;;
4961;SDS011;2496;52.468;13.342;2023-05-20T04:23:13;10.03;;;5.20;;
4961;SDS011;2496;52.468;13.342;2023-05-20T04:25:41;10.20;;;5.83;;
4961;SDS011;2496;52.468;13.342;2023-05-20T04:28:09;8.70;;;6.10;;
4961;SDS011;2496;52.468;13.342;2023-05-20T04:30:38;7.77;;;4.47;;
4961;SDS011;2496;52.468;13.342;2023-05-20T04:33:07;12.90;;;5.03;;
4961;SDS011;2496;52.468;13.342;2023-05-20T04:35:35;8.73;;;4.80;;
4961;SDS011;2496;52.468;13.342;2023-05-20T04:38:05;7.90;;;4.60;;
4961;SDS011;2496;52.468;13.342;2023-05-20T04:40:32;6.10;;;4.30;;
4961;SDS011;2496;52.468;13.342;2023-05-20T04:42:59;10.90;;;4.87;;
4961;SDS011;2496;52.468;13.342;2023-05-20T04:45:28;10.30;;;4.87;;
4961;SDS011;2496;52.468;13.342;2023-05-20T04:47:55;12.50;;;4.83;;
4961;SDS011;2496;52.468;13.342;2023-05-20T04:50:23;7.27;;;5.00;;
4961;SDS011;2496;52.468;13.342;2023-05-20T04:52:50;7.23;;;5.00;;
4961;SDS011;2496;52.468;13.342;2023-05-20T04:55:18;9.43;;;5.80;;
4961;SDS011;2496;52.468;13.342;2023-05-20T04:57:45;6.40;;;4.80;;
4961;SDS011;2496;52.468;13.342;2023-05-20T05:00:13;11.20;;;4.90;;
4961;SDS011;2496;52.468;13.342;2023-05-20T05:02:40;8.20;;;5.23;;
4961;SDS011;2496;52.468;13.342;2023-05-20T05:05:07;13.30;;;5.40;;
4961;SDS011;2496;52.468;13.342;2023-05-20T05:07:37;8.83;;;5.87;;
4961;SDS011;2496;52.468;13.342;2023-05-20T05:10:04;10.57;;;5.70;;
4961;SDS011;2496;52.468;13.342;2023-05-20T05:12:32;6.33;;;5.10;;
4961;SDS011;2496;52.468;13.342;2023-05-20T05:14:59;12.03;;;6.33;;
4961;SDS011;2496;52.468;13.342;2023-05-20T05:17:26;11.37;;;5.37;;
4961;SDS011;2496;52.468;13.342;2023-05-20T05:19:54;9.10;;;5.53;;
4961;SDS011;2496;52.468;13.342;2023-05-20T05:22:21;9.53;;;6.20;;
4961;SDS011;2496;52.468;13.342;2023-05-20T05:24:49;13.97;;;5.67;;
4961;SDS011;2496;52.468;13.342;2023-05-20T05:27:16;10.50;;;5.33;;
4961;SDS011;2496;52.468;13.342;2023-05-20T05:29:44;8.03;;;5.90;;
4961;SDS011;2496;52.468;13.342;2023-05-20T05:32:11;9.37;;;5.97;;
4961;SDS011;2496;52.468;13.342;2023-05-20T05:34:38;10.27;;;5.77;;
4961;SDS011;2496;52.468;13.342;2023-05-20T05:37:05;7.40;;;5.47;;
4961;SDS011;2496;52.468;13.342;2023-05-20T05:39:32;9.90;;;4.43;;
4961;SDS011;2496;52.468;13.342;2023-05-20T05:42:03;9.63;;;5.43;;
4961;SDS011;2496;52.468;13.342;2023-05-20T05:44:30;8.67;;;5.30;;
4961;SDS011;2496;52.468;13.342;2023-05-20T05:46:57;14.13;;;5.97;;
4961;SDS011;2496;52.468;13.342;2023-05-20T05:49:24;9.43;;;6.03;;
4961;SDS011;2496;52.468;13.342;2023-05-20T05:51:52;8.97;;;5.93;;
4961;SDS011;2496;52.468;13.342;2023-05-20T05:54:19;8.97;;;6.43;;
4961;SDS011;2496;52.468;13.342;2023-05-20T05:56:47;17.83;;;7.30;;
4961;SDS011;2496;52.468;13.342;2023-05-20T05:59:15;7.30;;;4.97;;
4961;SDS011;2496;52.468;13.342;2023-05-20T06:01:42;9.60;;;6.67;;
4961;SDS011;2496;52.468;13.342;2023-05-20T06:04:10;16.00;;;6.47;;
4961;SDS011;2496;52.468;13.342;2023-05-20T06:06:37;12.90;;;7.10;;
4961;SDS011;2496;52.468;13.342;2023-05-20T06:09:05;10.70;;;6.07;;
4961;SDS011;2496;52.468;13.342;2023-05-20T06:11:32;9.90;;;6.80;;
4961;SDS011;2496;52.468;13.342;2023-05-20T06:14:00;13.00;;;6.50;;
4961;SDS011;2496;52.468;13.342;2023-05-20T06:16:28;8.13;;;6.13;;
4961;SDS011;2496;52.468;13.342;2023-05-20T06:18:55;10.47;;;6.13;;
4961;SDS011;2496;52.468;13.342;2023-05-20T06:21:23;8.80;;;6.20;;
4961;SDS011;2496;52.468;13.342;2023-05-20T06:23:50;11.60;;;6.70;;
4961;SDS011;2496;52.468;13.342;2023-05-20T06:26:17;9.07;;;6.50;;
4961;SDS011;2496;52.468;13.342;2023-05-20T06:28:44;14.93;;;6.80;;
4961;SDS011;2496;52.468;13.342;2023-05-20T06:31:11;9.33;;;6.50;;
4961;SDS011;2496;52.468;13.342;2023-05-20T06:33:39;9.90;;;7.20;;
4961;SDS011;2496;52.468;13.342;2023-05-20T06:36:06;11.37;;;6.50;;
4961;SDS011;2496;52.468;13.342;2023-05-20T06:38:33;17.83;;;7.60;;
4961;SDS011;2496;52.468;13.342;2023-05-20T06:41:00;10.53;;;6.67;;
4961;SDS011;2496;52.468;13.342;2023-05-20T06:43:27;12.87;;;6.60;;
4961;SDS011;2496;52.468;13.342;2023-05-20T06:45:54;10.03;;;6.90;;
4961;SDS011;2496;52.468;13.342;2023-05-20T06:48:21;11.50;;;7.07;;
4961;SDS011;2496;52.468;13.342;2023-05-20T06:50:49;15.30;;;6.87;;
4961;SDS011;2496;52.468;13.342;2023-05-20T06:53:16;8.47;;;6.43;;
4961;SDS011;2496;52.468;13.342;2023-05-20T06:55:43;13.27;;;7.10;;
4961;SDS011;2496;52.468;13.342;2023-05-20T06:58:10;8.57;;;6.10;;
4961;SDS011;2496;52.468;13.342;2023-05-20T07:00:37;14.60;;;6.50;;
4961;SDS011;2496;52.468;13.342;2023-05-20T07:03:04;11.73;;;6.90;;
4961;SDS011;2496;52.468;13.342;2023-05-20T07:05:31;13.80;;;7.60;;
4961;SDS011;2496;52.468;13.342;2023-05-20T07:07:59;10.77;;;6.50;;
4961;SDS011;2496;52.468;13.342;2023-05-20T07:10:26;19.73;;;7.93;;
4961;SDS011;2496;52.468;13.342;2023-05-20T07:12:54;11.23;;;6.20;;
4961;SDS011;2496;52.468;13.342;2023-05-20T07:15:21;10.90;;;6.07;;
4961;SDS011;2496;52.468;13.342;2023-05-20T07:17:48;9.63;;;7.20;;
4961;SDS011;2496;52.468;13.342;2023-05-20T07:20:15;10.37;;;6.23;;
4961;SDS011;2496;52.468;13.342;2023-05-20T07:22:42;11.03;;;6.17;;
4961;SDS011;2496;52.468;13.342;2023-05-20T07:25:11;10.17;;;6.47;;
4961;SDS011;2496;52.468;13.342;2023-05-20T07:27:38;8.10;;;5.97;;
4961;SDS011;2496;52.468;13.342;2023-05-20T07:30:06;11.83;;;6.23;;
4961;SDS011;2496;52.468;13.342;2023-05-20T07:32:33;8.50;;;5.53;;
4961;SDS011;2496;52.468;13.342;2023-05-20T07:35:00;13.63;;;6.30;;
4961;SDS011;2496;52.468;13.342;2023-05-20T07:37:27;8.27;;;6.00;;
4961;SDS011;2496;52.468;13.342;2023-05-20T07:39:54;9.97;;;6.57;;
4961;SDS011;2496;52.468;13.342;2023-05-20T07:42:23;9.37;;;6.77;;
4961;SDS011;2496;52.468;13.342;2023-05-20T07:44:51;7.57;;;5.90;;
4961;SDS011;2496;52.468;13.342;2023-05-20T07:47:18;12.80;;;6.30;;
4961;SDS011;2496;52.468;13.342;2023-05-20T07:49:50;16.90;;;5.47;;
4961;SDS011;2496;52.468;13.342;2023-05-20T07:52:18;8.70;;;6.00;;
4961;SDS011;2496;52.468;13.342;2023-05-20T07:54:46;8.90;;;5.80;;
4961;SDS011;2496;52.468;13.342;2023-05-20T07:57:14;8.67;;;6.47;;
4961;SDS011;2496;52.468;13.342;2023-05-20T07:59:46;8.60;;;6.07;;
4961;SDS011;2496;52.468;13.342;2023-05-20T08:02:13;9.23;;;6.47;;
4961;SDS011;2496;52.468;13.342;2023-05-20T08:04:40;13.40;;;7.10;;
4961;SDS011;2496;52.468;13.342;2023-05-20T08:07:07;14.23;;;6.07;;
4961;SDS011;2496;52.468;13.342;2023-05-20T08:09:34;16.10;;;6.50;;
4961;SDS011;2496;52.468;13.342;2023-05-20T08:12:01;9.13;;;5.20;;
4961;SDS011;2496;52.468;13.342;2023-05-20T08:14:28;12.80;;;6.13;;
4961;SDS011;2496;52.468;13.342;2023-05-20T08:16:56;11.47;;;6.53;;
4961;SDS011;2496;52.468;13.342;2023-05-20T08:19:23;7.57;;;5.57;;
4961;SDS011;2496;52.468;13.342;2023-05-20T08:21:50;7.20;;;5.87;;
4961;SDS011;2496;52.468;13.342;2023-05-20T08:24:17;7.30;;;5.83;;
4961;SDS011;2496;52.468;13.342;2023-05-20T08:26:44;8.47;;;6.10;;
4961;SDS011;2496;52.468;13.342;2023-05-20T08:29:11;9.43;;;5.63;;
4961;SDS011;2496;52.468;13.342;2023-05-20T08:31:38;8.30;;;5.93;;
4961;SDS011;2496;52.468;13.342;2023-05-20T08:34:06;8.27;;;6.20;;
4961;SDS011;2496;52.468;13.342;2023-05-20T08:36:33;7.90;;;5.37;;
4961;SDS011;2496;52.468;13.342;2023-05-20T08:39:00;8.20;;;5.30;;
4961;SDS011;2496;52.468;13.342;2023-05-20T08:41:28;10.93;;;6.90;;
4961;SDS011;2496;52.468;13.342;2023-05-20T08:43:55;8.77;;;5.43;;
4961;SDS011;2496;52.468;13.342;2023-05-20T08:46:24;7.53;;;5.77;;
4961;SDS011;2496;52.468;13.342;2023-05-20T08:48:51;7.57;;;6.37;;
4961;SDS011;2496;52.468;13.342;2023-05-20T08:51:20;16.40;;;5.20;;
4961;SDS011;2496;52.468;13.342;2023-05-20T08:53:48;7.50;;;5.57;;
4961;SDS011;2496;52.468;13.342;2023-05-20T08:56:16;11.20;;;7.40;;
4961;SDS011;2496;52.468;13.342;2023-05-20T08:58:43;10.13;;;6.30;;
4961;SDS011;2496;52.468;13.342;2023-05-20T09:01:11;7.07;;;5.67;;
4961;SDS011;2496;52.468;13.342;2023-05-20T09:03:38;12.67;;;7.17;;
4961;SDS011;2496;52.468;13.342;2023-05-20T09:06:05;10.93;;;6.50;;
4961;SDS011;2496;52.468;13.342;2023-05-20T09:08:35;10.17;;;7.17;;
4961;SDS011;2496;52.468;13.342;2023-05-20T09:11:02;14.80;;;6.10;;
4961;SDS011;2496;52.468;13.342;2023-05-20T09:13:29;9.33;;;6.17;;
4961;SDS011;2496;52.468;13.342;2023-05-20T09:15:58;9.23;;;6.57;;
4961;SDS011;2496;52.468;13.342;2023-05-20T09:18:26;8.23;;;6.43;;
4961;SDS011;2496;52.468;13.342;2023-05-20T09:20:53;7.00;;;5.40;;
4961;SDS011;2496;52.468;13.342;2023-05-20T09:23:20;11.40;;;6.33;;
4961;SDS011;2496;52.468;13.342;2023-05-20T09:25:49;9.70;;;7.00;;
4961;SDS011;2496;52.468;13.342;2023-05-20T09:28:18;12.60;;;7.80;;
4961;SDS011;2496;52.468;13.342;2023-05-20T09:30:48;10.53;;;6.40;;
4961;SDS011;2496;52.468;13.342;2023-05-20T09:33:15;15.73;;;7.30;;
4961;SDS011;2496;52.468;13.342;2023-05-20T09:35:43;9.73;;;6.90;;
4961;SDS011;2496;52.468;13.342;2023-05-20T09:38:10;12.20;;;7.50;;
4961;SDS011;2496;52.468;13.342;2023-05-20T09:40:39;9.20;;;6.90;;
4961;SDS011;2496;52.468;13.342;2023-05-20T09:43:11;11.60;;;7.90;;
4961;SDS011;2496;52.468;13.342;2023-05-20T09:45:38;12.60;;;8.40;;
4961;SDS011;2496;52.468;13.342;2023-05-20T09:48:06;11.23;;;7.63;;
4961;SDS011;2496;52.468;13.342;2023-05-20T09:50:36;11.93;;;7.40;;
4961;SDS011;2496;52.468;13.342;2023-05-20T09:53:03;11.30;;;7.87;;
4961;SDS011;2496;52.468;13.342;2023-05-20T09:55:32;13.10;;;8.83;;
4961;SDS011;2496;52.468;13.342;2023-05-20T09:58:00;9.63;;;7.57;;
4961;SDS011;2496;52.468;13.342;2023-05-20T10:00:29;14.23;;;9.20;;
4961;SDS011;2496;52.468;13.342;2023-05-20T10:02:57;12.33;;;8.50;;
4961;SDS011;2496;52.468;13.342;2023-05-20T10:05:26;14.50;;;10.03;;
4961;SDS011;2496;52.468;13.342;2023-05-20T10:08:04;15.17;;;9.50;;
4961;SDS011;2496;52.468;13.342;2023-05-20T10:10:55;13.00;;;8.67;;
4961;SDS011;2496;52.468;13.342;2023-05-20T10:13:34;12.50;;;8.87;;
4961;SDS011;2496;52.468;13.342;2023-05-20T10:16:16;12.50;;;9.17;;
4961;SDS011;2496;52.468;13.342;2023-05-20T10:19:02;18.80;;;9.83;;
4961;SDS011;2496;52.468;13.342;2023-05-20T10:21:37;15.47;;;10.10;;
4961;SDS011;2496;52.468;13.342;2023-05-20T10:24:04;14.20;;;8.60;;
4961;SDS011;2496;52.468;13.342;2023-05-20T10:26:35;14.10;;;8.60;;
4961;SDS011;2496;52.468;13.342;2023-05-20T10:29:13;10.73;;;8.43;;
4961;SDS011;2496;52.468;13.342;2023-05-20T10:31:44;15.47;;;9.13;;
4961;SDS011;2496;52.468;13.342;2023-05-20T10:34:15;12.13;;;9.87;;
4961;SDS011;2496;52.468;13.342;2023-05-20T10:47:21;11.87;;;8.30;;
4961;SDS011;2496;52.468;13.342;2023-05-20T10:49:48;12.70;;;8.70;;
4961;SDS011;2496;52.468;13.342;2023-05-20T10:52:15;12.57;;;8.60;;
4961;SDS011;2496;52.468;13.342;2023-05-20T10:54:43;11.93;;;8.87;;
4961;SDS011;2496;52.468;13.342;2023-05-20T10:57:11;13.20;;;9.40;;
4961;SDS011;2496;52.468;13.342;2023-05-20T10:59:39;15.57;;;8.97;;
4961;SDS011;2496;52.468;13.342;2023-05-20T11:02:06;13.53;;;8.00;;
4961;SDS011;2496;52.468;13.342;2023-05-20T11:04:38;15.10;;;8.60;;
4961;SDS011;2496;52.468;13.342;2023-05-20T11:07:07;12.93;;;9.30;;
4961;SDS011;2496;52.468;13.342;2023-05-20T11:09:35;16.60;;;9.73;;
4961;SDS011;2496;52.468;13.342;2023-05-20T11:12:02;11.20;;;8.90;;
4961;SDS011;2496;52.468;13.342;2023-05-20T11:14:30;11.80;;;8.80;;
4961;SDS011;2496;52.468;13.342;2023-05-20T11:16:57;16.63;;;9.47;;
4961;SDS011;2496;52.468;13.342;2023-05-20T11:19:24;16.00;;;10.07;;
4961;SDS011;2496;52.468;13.342;2023-05-20T11:21:53;18.07;;;9.57;;
4961;SDS011;2496;52.468;13.342;2023-05-20T11:24:23;11.87;;;9.03;;
4961;SDS011;2496;52.468;13.342;2023-05-20T11:26:51;18.20;;;9.70;;
4961;SDS011;2496;52.468;13.342;2023-05-20T11:29:19;14.37;;;9.97;;
4961;SDS011;2496;52.468;13.342;2023-05-20T11:31:46;13.87;;;9.80;;
4961;SDS011;2496;52.468;13.342;2023-05-20T11:34:16;12.93;;;9.33;;
4961;SDS011;2496;52.468;13.342;2023-05-20T11:36:45;11.40;;;8.90;;
4961;SDS011;2496;52.468;13.342;2023-05-20T11:39:15;12.40;;;9.67;;
4961;SDS011;2496;52.468;13.342;2023-05-20T11:41:43;13.50;;;10.07;;
4961;SDS011;2496;52.468;13.342;2023-05-20T11:44:10;21.40;;;10.50;;
4961;SDS011;2496;52.468;13.342;2023-05-20T11:46:41;15.57;;;9.53;;
4961;SDS011;2496;52.468;13.342;2023-05-20T11:49:08;12.63;;;9.87;;
4961;SDS011;2496;52.468;13.342;2023-05-20T11:51:36;16.03;;;9.63;;
4961;SDS011;2496;52.468;13.342;2023-05-20T11:54:04;14.37;;;8.40;;
4961;SDS011;2496;52.468;13.342;2023-05-20T11:56:34;15.07;;;9.17;;
4961;SDS011;2496;52.468;13.342;2023-05-20T11:59:02;14.17;;;8.83;;
4961;SDS011;2496;52.468;13.342;2023-05-20T12:01:30;15.00;;;9.97;;
4961;SDS011;2496;52.468;13.342;2023-05-20T12:04:02;11.87;;;9.10;;
4961;SDS011;2496;52.468;13.342;2023-05-20T12:06:30;13.50;;;9.50;;
4961;SDS011;2496;52.468;13.342;2023-05-20T12:08:59;12.00;;;9.30;;
4961;SDS011;2496;52.468;13.342;2023-05-20T12:11:30;14.30;;;9.40;;
4961;SDS011;2496;52.468;13.342;2023-05-20T12:13:59;13.23;;;9.80;;
4961;SDS011;2496;52.468;13.342;2023-05-20T12:16:27;15.33;;;10.27;;
4961;SDS011;2496;52.468;13.342;2023-05-20T12:18:54;12.73;;;9.40;;
4961;SDS011;2496;52.468;13.342;2023-05-20T12:21:20;12.17;;;9.50;;
4961;SDS011;2496;52.468;13.342;2023-05-20T12:23:47;12.00;;;8.20;;
4961;SDS011;2496;52.468;13.342;2023-05-20T12:26:15;17.43;;;9.73;;
4961;SDS011;2496;52.468;13.342;2023-05-20T12:28:42;14.73;;;9.20;;
4961;SDS011;2496;52.468;13.342;2023-05-20T12:31:10;13.67;;;8.93;;
4961;SDS011;2496;52.468;13.342;2023-05-20T12:33:37;16.30;;;9.50;;
4961;SDS011;2496;52.468;13.342;2023-05-20T12:36:04;11.37;;;8.57;;
4961;SDS011;2496;52.468;13.342;2023-05-20T12:38:32;14.53;;;9.53;;
4961;SDS011;2496;52.468;13.342;2023-05-20T12:41:00;15.40;;;8.90;;
4961;SDS011;2496;52.468;13.342;2023-05-20T12:43:27;13.47;;;9.90;;
4961;SDS011;2496;52.468;13.342;2023-05-20T12:45:54;11.73;;;8.90;;
4961;SDS011;2496;52.468;13.342;2023-05-20T12:48:22;12.60;;;8.57;;
4961;SDS011;2496;52.468;13.342;2023-05-20T12:50:49;12.70;;;9.03;;
4961;SDS011;2496;52.468;13.342;2023-05-20T12:53:16;11.80;;;9.23;;
4961;SDS011;2496;52.468;13.342;2023-05-20T12:55:43;10.90;;;8.90;;
4961;SDS011;2496;52.468;13.342;2023-05-20T12:58:10;12.57;;;9.80;;
4961;SDS011;2496;52.468;13.342;2023-05-20T13:00:37;12.50;;;9.83;;
4961;SDS011;2496;52.468;13.342;2023-05-20T13:03:04;12.87;;;9.20;;
4961;SDS011;2496;52.468;13.342;2023-05-20T13:05:32;20.07;;;9.80;;
4961;SDS011;2496;52.468;13.342;2023-05-20T13:07:59;14.10;;;9.67;;
4961;SDS011;2496;52.468;13.342;2023-05-20T13:10:27;18.80;;;10.50;;
4961;SDS011;2496;52.468;13.342;2023-05-20T13:12:54;12.00;;;8.57;;
4961;SDS011;2496;52.468;13.342;2023-05-20T13:15:22;11.27;;;9.27;;
4961;SDS011;2496;52.468;13.342;2023-05-20T13:17:48;13.23;;;10.10;;
4961;SDS011;2496;52.468;13.342;2023-05-20T13:20:15;12.40;;;9.20;;
4961;SDS011;2496;52.468;13.342;2023-05-20T13:22:44;10.70;;;8.63;;
4961;SDS011;2496;52.468;13.342;2023-05-20T13:25:12;11.00;;;8.70;;
4961;SDS011;2496;52.468;13.342;2023-05-20T13:27:39;14.30;;;8.30;;
4961;SDS011;2496;52.468;13.342;2023-05-20T13:30:07;14.63;;;9.23;;
4961;SDS011;2496;52.468;13.342;2023-05-20T13:32:34;13.20;;;8.80;;
4961;SDS011;2496;52.468;13.342;2023-05-20T13:35:01;12.27;;;8.90;;
4961;SDS011;2496;52.468;13.342;2023-05-20T13:37:28;16.23;;;9.33;;
4961;SDS011;2496;52.468;13.342;2023-05-20T13:39:56;10.33;;;8.43;;
4961;SDS011;2496;52.468;13.342;2023-05-20T13:42:23;10.40;;;8.53;;
4961;SDS011;2496;52.468;13.342;2023-05-20T13:44:50;11.60;;;8.67;;
4961;SDS011;2496;52.468;13.342;2023-05-20T13:47:17;11.97;;;9.10;;
4961;SDS011;2496;52.468;13.342;2023-05-20T13:49:45;16.03;;;9.03;;
4961;SDS011;2496;52.468;13.342;2023-05-20T13:52:12;12.90;;;9.90;;
4961;SDS011;2496;52.468;13.342;2023-05-20T13:54:39;12.77;;;8.70;;
4961;SDS011;2496;52.468;13.342;2023-05-20T13:57:08;16.77;;;10.17;;
4961;SDS011;2496;52.468;13.342;2023-05-20T13:59:38;15.13;;;9.37;;
4961;SDS011;2496;52.468;13.342;2023-05-20T14:02:05;14.63;;;8.93;;
4961;SDS011;2496;52.468;13.342;2023-05-20T14:04:33;14.00;;;9.10;;
4961;SDS011;2496;52.468;13.342;2023-05-20T14:07:02;21.90;;;9.20;;
4961;SDS011;2496;52.468;13.342;2023-05-20T14:09:29;16.47;;;7.93;;
4961;SDS011;2496;52.468;13.342;2023-05-20T14:11:56;10.43;;;8.17;;
4961;SDS011;2496;52.468;13.342;2023-05-20T14:14:25;23.53;;;13.07;;
4961;SDS011;2496;52.468;13.342;2023-05-20T14:17:01;11.43;;;8.37;;
4961;SDS011;2496;52.468;13.342;2023-05-20T14:19:29;10.80;;;8.57;;
4961;SDS011;2496;52.468;13.342;2023-05-20T14:21:56;13.93;;;10.67;;
4961;SDS011;2496;52.468;13.342;2023-05-20T14:24:25;9.97;;;7.53;;
4961;SDS011;2496;52.468;13.342;2023-05-20T14:26:52;10.80;;;7.50;;
4961;SDS011;2496;52.468;13.342;2023-05-20T14:29:19;12.57;;;10.33;;
4961;SDS011;2496;52.468;13.342;2023-05-20T14:31:53;12.40;;;8.70;;
4961;SDS011;2496;52.468;13.342;2023-05-20T14:34:20;16.53;;;11.33;;
4961;SDS011;2496;52.468;13.342;2023-05-20T14:36:47;14.77;;;9.10;;
4961;SDS011;2496;52.468;13.342;2023-05-20T14:39:14;11.23;;;9.47;;
4961;SDS011;2496;52.468;13.342;2023-05-20T14:41:41;11.57;;;8.90;;
4961;SDS011;2496;52.468;13.342;2023-05-20T14:44:08;12.10;;;7.80;;
4961;SDS011;2496;52.468;13.342;2023-05-20T14:46:35;8.90;;;7.37;;
4961;SDS011;2496;52.468;13.342;2023-05-20T14:49:04;12.40;;;9.43;;
4961;SDS011;2496;52.468;13.342;2023-05-20T14:51:31;16.37;;;9.20;;
4961;SDS011;2496;52.468;13.342;2023-05-20T14:53:58;12.87;;;9.43;;
4961;SDS011;2496;52.468;13.342;2023-05-20T14:56:25;14.93;;;7.77;;
4961;SDS011;2496;52.468;13.342;2023-05-20T14:58:53;9.73;;;7.30;;
4961;SDS011;2496;52.468;13.342;2023-05-20T15:01:21;11.83;;;8.27;;
4961;SDS011;2496;52.468;13.342;2023-05-20T15:03:49;10.33;;;7.77;;
4961;SDS011;2496;52.468;13.342;2023-05-20T15:06:17;11.53;;;8.10;;
4961;SDS011;2496;52.468;13.342;2023-05-20T15:08:44;11.13;;;8.83;;